createdAt,value
2017-01-17T00:00:07.053Z,855.36
2017-01-17T00:00:37.082Z,855.33
2017-01-17T00:01:07.108Z,855.29
2017-01-17T00:01:37.138Z,855.23
2017-01-17T00:02:07.170Z,855.25
2017-01-17T00:02:37.196Z,855.25
2017-01-17T00:03:07.221Z,855.25
2017-01-17T00:03:37.250Z,855.2
2017-01-17T00:04:07.280Z,855.22
2017-01-17T00:04:37.307Z,855.14
2017-01-17T00:05:07.335Z,855.13
2017-01-17T00:05:37.365Z,855.11
2017-01-17T00:06:07.393Z,855.14
2017-01-17T00:06:37.422Z,855.13
2017-01-17T00:07:07.447Z,855.11
2017-01-17T00:07:37.476Z,855.09
2017-01-17T00:08:07.506Z,855.04
2017-01-17T00:08:37.533Z,855.05
2017-01-17T00:09:07.563Z,855.06
2017-01-17T00:09:37.588Z,855.04
2017-01-17T00:10:07.618Z,855.07
2017-01-17T00:10:37.646Z,855.07
2017-01-17T00:11:07.672Z,855.05
2017-01-17T00:11:37.701Z,855.09
2017-01-17T00:12:07.729Z,855.06
2017-01-17T00:12:37.757Z,855.07
2017-01-17T00:13:07.786Z,855.04
2017-01-17T00:13:37.814Z,855.01
2017-01-17T00:14:07.842Z,854.97
2017-01-17T00:14:37.870Z,854.96
2017-01-17T00:15:07.901Z,854.93
2017-01-17T00:15:37.926Z,854.95
2017-01-17T00:16:07.955Z,854.94
2017-01-17T00:16:37.988Z,854.91
2017-01-17T00:17:08.010Z,854.79
2017-01-17T00:17:38.040Z,854.86
2017-01-17T00:18:08.068Z,854.81
2017-01-17T00:18:38.095Z,854.81
2017-01-17T00:19:08.123Z,854.8
2017-01-17T00:19:38.153Z,854.79
2017-01-17T00:20:08.177Z,854.82
2017-01-17T00:20:38.208Z,854.76
2017-01-17T00:21:08.233Z,854.68
2017-01-17T00:21:38.263Z,854.76
2017-01-17T00:22:08.289Z,854.74
2017-01-17T00:22:38.320Z,854.74
2017-01-17T00:23:08.348Z,854.71
2017-01-17T00:23:38.377Z,854.71
2017-01-17T00:24:08.406Z,854.69
2017-01-17T00:24:38.436Z,854.63
2017-01-17T00:25:08.462Z,854.64
2017-01-17T00:25:38.487Z,854.58
2017-01-17T00:26:08.517Z,854.56
2017-01-17T00:26:38.544Z,854.6
2017-01-17T00:27:08.573Z,854.53
2017-01-17T00:27:38.601Z,854.53
2017-01-17T00:28:08.629Z,854.56
2017-01-17T00:28:38.663Z,854.54
2017-01-17T00:29:08.687Z,854.54
2017-01-17T00:29:38.717Z,854.54
2017-01-17T00:30:08.741Z,854.48
2017-01-17T00:30:38.768Z,854.41
2017-01-17T00:31:08.797Z,854.42
2017-01-17T00:31:38.830Z,854.4
2017-01-17T00:32:08.855Z,854.43
2017-01-17T00:32:38.884Z,854.42
2017-01-17T00:33:08.917Z,854.43
2017-01-17T00:33:38.938Z,854.44
2017-01-17T00:34:08.967Z,854.45
2017-01-17T00:34:38.996Z,854.46
2017-01-17T00:35:09.024Z,854.51
2017-01-17T00:35:39.049Z,854.51
2017-01-17T00:36:09.083Z,854.51
2017-01-17T00:36:39.107Z,854.58
2017-01-17T00:37:09.136Z,854.61
2017-01-17T00:37:39.163Z,854.67
2017-01-17T00:38:09.194Z,854.73
2017-01-17T00:38:39.222Z,854.79
2017-01-17T00:39:09.248Z,854.83
2017-01-17T00:39:39.277Z,854.88
2017-01-17T00:40:09.306Z,854.89
2017-01-17T00:40:39.335Z,854.9
2017-01-17T00:41:09.363Z,854.91
2017-01-17T00:41:39.391Z,854.98
2017-01-17T00:42:09.416Z,854.99
2017-01-17T00:42:39.456Z,855.02
2017-01-17T00:43:09.475Z,855.07
2017-01-17T00:43:39.502Z,855.09
2017-01-17T00:44:09.531Z,855.13
2017-01-17T00:44:39.558Z,855.11
2017-01-17T00:45:09.588Z,855.14
2017-01-17T00:45:39.614Z,855.17
2017-01-17T00:46:09.643Z,855.18
2017-01-17T00:46:39.674Z,855.2
2017-01-17T00:47:09.701Z,855.24
2017-01-17T00:47:39.725Z,855.28
2017-01-17T00:48:09.756Z,855.29
2017-01-17T00:48:39.785Z,855.33
2017-01-17T00:49:09.812Z,855.39
2017-01-17T00:49:39.841Z,855.45
2017-01-17T00:50:09.867Z,855.49
2017-01-17T00:50:39.896Z,855.51
2017-01-17T00:51:09.924Z,855.53
2017-01-17T00:51:39.956Z,855.5
2017-01-17T00:52:09.982Z,855.49
2017-01-17T00:52:40.012Z,855.49
2017-01-17T00:53:10.038Z,855.51
2017-01-17T00:53:40.068Z,855.5
2017-01-17T00:54:10.096Z,855.49
2017-01-17T00:54:40.125Z,855.48
2017-01-17T00:55:10.154Z,855.42
2017-01-17T00:55:40.182Z,855.41
2017-01-17T00:56:10.210Z,855.37
2017-01-17T00:56:40.235Z,855.32
2017-01-17T00:57:10.265Z,855.31
2017-01-17T00:57:40.293Z,855.25
2017-01-17T00:58:10.323Z,855.23
2017-01-17T00:58:40.352Z,855.21
2017-01-17T00:59:10.378Z,855.09
2017-01-17T00:59:40.407Z,855.08
2017-01-17T01:00:10.434Z,855.02
2017-01-17T01:00:40.461Z,854.99
2017-01-17T01:01:10.492Z,854.98
2017-01-17T01:01:40.518Z,854.91
2017-01-17T01:02:10.550Z,854.9
2017-01-17T01:02:40.575Z,854.85
2017-01-17T01:03:10.604Z,854.82
2017-01-17T01:03:40.633Z,854.78
2017-01-17T01:04:10.662Z,854.75
2017-01-17T01:04:40.688Z,854.74
2017-01-17T01:05:10.721Z,854.73
2017-01-17T01:05:40.744Z,854.69
2017-01-17T01:06:10.773Z,854.71
2017-01-17T01:06:40.800Z,854.62
2017-01-17T01:07:10.830Z,854.66
2017-01-17T01:07:40.857Z,854.61
2017-01-17T01:08:10.884Z,854.61
2017-01-17T01:08:40.914Z,854.6
2017-01-17T01:09:10.942Z,854.61
2017-01-17T01:09:40.970Z,854.46
2017-01-17T01:10:10.999Z,854.53
2017-01-17T01:10:41.029Z,854.44
2017-01-17T01:11:11.053Z,854.38
2017-01-17T01:11:41.082Z,854.37
2017-01-17T01:12:11.111Z,854.36
2017-01-17T01:12:41.138Z,854.28
2017-01-17T01:13:11.167Z,854.27
2017-01-17T01:13:41.195Z,854.23
2017-01-17T01:14:11.225Z,854.21
2017-01-17T01:14:41.254Z,854.19
2017-01-17T01:15:11.284Z,854.15
2017-01-17T01:15:41.310Z,854.11
2017-01-17T01:16:11.337Z,854.09
2017-01-17T01:16:41.366Z,854.06
2017-01-17T01:17:11.393Z,853.99
2017-01-17T01:17:41.420Z,853.94
2017-01-17T01:18:11.449Z,853.86
2017-01-17T01:18:41.477Z,853.84
2017-01-17T01:19:11.506Z,853.77
2017-01-17T01:19:41.533Z,853.7
2017-01-17T01:20:11.562Z,853.64
2017-01-17T01:20:41.590Z,853.59
2017-01-17T01:21:11.618Z,853.49
2017-01-17T01:21:41.646Z,853.46
2017-01-17T01:22:11.676Z,853.36
2017-01-17T01:22:41.700Z,853.31
2017-01-17T01:23:11.729Z,853.3
2017-01-17T01:23:41.756Z,853.25
2017-01-17T01:24:11.783Z,853.22
2017-01-17T01:24:41.813Z,853.18
2017-01-17T01:25:11.843Z,853.16
2017-01-17T01:25:41.870Z,853.06
2017-01-17T01:26:11.900Z,852.97
2017-01-17T01:26:41.925Z,853.04
2017-01-17T01:27:11.952Z,852.98
2017-01-17T01:27:41.981Z,852.94
2017-01-17T01:28:12.011Z,852.94
2017-01-17T01:28:42.039Z,852.92
2017-01-17T01:29:12.065Z,852.82
2017-01-17T01:29:42.093Z,852.68
2017-01-17T01:30:12.121Z,852.55
2017-01-17T01:30:42.150Z,852.37
2017-01-17T01:31:12.179Z,852.28
2017-01-17T01:31:42.204Z,852.15
2017-01-17T01:32:12.235Z,852.1
2017-01-17T01:32:42.262Z,851.96
2017-01-17T01:33:12.289Z,851.83
2017-01-17T01:33:42.317Z,851.74
2017-01-17T01:34:12.345Z,851.66
2017-01-17T01:34:42.373Z,851.57
2017-01-17T01:35:12.400Z,851.42
2017-01-17T01:35:42.431Z,851.38
2017-01-17T01:36:12.460Z,851.27
2017-01-17T01:36:42.484Z,851.25
2017-01-17T01:37:12.562Z,851.13
2017-01-17T01:37:42.542Z,851.08
2017-01-17T01:38:12.569Z,850.98
2017-01-17T01:38:42.596Z,850.91
2017-01-17T01:39:12.625Z,850.82
2017-01-17T01:39:42.653Z,850.77
2017-01-17T01:40:12.680Z,850.68
2017-01-17T01:40:42.708Z,850.63
2017-01-17T01:41:12.740Z,850.58
2017-01-17T01:41:42.765Z,850.55
2017-01-17T01:42:12.793Z,850.49
2017-01-17T01:42:42.822Z,850.42
2017-01-17T01:43:12.848Z,850.38
2017-01-17T01:43:42.875Z,850.34
2017-01-17T01:44:12.902Z,850.31
2017-01-17T01:44:42.933Z,850.31
2017-01-17T01:45:12.960Z,850.3
2017-01-17T01:45:42.987Z,850.22
2017-01-17T01:46:13.013Z,850.21
2017-01-17T01:46:43.041Z,850.13
2017-01-17T01:47:13.069Z,850.08
2017-01-17T01:47:43.098Z,850.05
2017-01-17T01:48:13.127Z,850.03
2017-01-17T01:48:43.152Z,849.97
2017-01-17T01:49:13.180Z,849.95
2017-01-17T01:49:43.209Z,849.9
2017-01-17T01:50:13.238Z,849.84
2017-01-17T01:50:43.264Z,849.82
2017-01-17T01:51:13.292Z,849.81
2017-01-17T01:51:43.321Z,849.73
2017-01-17T01:52:13.349Z,849.7
2017-01-17T01:52:43.375Z,849.59
2017-01-17T01:53:13.402Z,849.54
2017-01-17T01:53:43.429Z,849.54
2017-01-17T01:54:13.460Z,849.51
2017-01-17T01:54:43.486Z,849.48
2017-01-17T01:55:13.512Z,849.42
2017-01-17T01:55:43.540Z,849.35
2017-01-17T01:56:13.567Z,849.3
2017-01-17T01:56:43.595Z,849.25
2017-01-17T01:57:13.623Z,849.25
2017-01-17T01:57:43.651Z,849.13
2017-01-17T01:58:13.679Z,849.11
2017-01-17T01:58:43.707Z,849.08
2017-01-17T01:59:13.733Z,849.04
2017-01-17T01:59:43.769Z,848.97
2017-01-17T02:00:13.792Z,849
2017-01-17T02:00:43.818Z,848.92
2017-01-17T02:01:13.848Z,848.94
2017-01-17T02:01:43.872Z,848.91
2017-01-17T02:02:13.902Z,848.84
2017-01-17T02:02:43.929Z,848.8
2017-01-17T02:03:13.953Z,848.79
2017-01-17T02:03:43.984Z,848.73
2017-01-17T02:04:14.012Z,848.71
2017-01-17T02:04:44.039Z,848.65
2017-01-17T02:05:14.067Z,848.65
2017-01-17T02:05:44.095Z,848.56
2017-01-17T02:06:14.121Z,848.51
2017-01-17T02:06:44.150Z,848.49
2017-01-17T02:07:14.178Z,848.44
2017-01-17T02:07:44.256Z,848.44
2017-01-17T02:08:14.232Z,848.42
2017-01-17T02:08:44.261Z,848.41
2017-01-17T02:09:14.288Z,848.4
2017-01-17T02:09:44.314Z,848.37
2017-01-17T02:10:14.343Z,848.4
2017-01-17T02:10:44.369Z,848.34
2017-01-17T02:11:14.401Z,848.37
2017-01-17T02:11:44.426Z,848.35
2017-01-17T02:12:14.454Z,848.38
2017-01-17T02:12:44.479Z,848.42
2017-01-17T02:13:14.510Z,848.36
2017-01-17T02:13:44.536Z,848.34
2017-01-17T02:14:14.564Z,848.39
2017-01-17T02:14:44.592Z,848.45
2017-01-17T02:15:14.622Z,848.36
2017-01-17T02:15:44.647Z,848.49
2017-01-17T02:16:14.677Z,848.53
2017-01-17T02:16:44.701Z,848.52
2017-01-17T02:17:14.729Z,848.6
2017-01-17T02:17:44.759Z,848.63
2017-01-17T02:18:14.786Z,848.68
2017-01-17T02:18:44.812Z,848.66
2017-01-17T02:19:14.841Z,848.72
2017-01-17T02:19:44.869Z,848.79
2017-01-17T02:20:14.896Z,848.8
2017-01-17T02:20:44.920Z,848.85
2017-01-17T02:21:14.951Z,848.88
2017-01-17T02:21:44.980Z,848.9
2017-01-17T02:22:15.008Z,848.89
2017-01-17T02:22:45.038Z,848.87
2017-01-17T02:23:15.062Z,848.85
2017-01-17T02:23:45.087Z,848.9
2017-01-17T02:24:15.120Z,848.89
2017-01-17T02:24:45.144Z,848.87
2017-01-17T02:25:15.172Z,848.89
2017-01-17T02:25:45.201Z,848.88
2017-01-17T02:26:15.228Z,848.85
2017-01-17T02:26:45.254Z,848.92
2017-01-17T02:27:15.283Z,848.9
2017-01-17T02:27:45.311Z,848.83
2017-01-17T02:28:15.642Z,848.9
2017-01-17T02:28:45.367Z,848.9
2017-01-17T02:29:15.394Z,848.86
2017-01-17T02:29:45.421Z,848.85
2017-01-17T02:30:15.449Z,848.81
2017-01-17T02:30:45.481Z,848.78
2017-01-17T02:31:15.505Z,848.78
2017-01-17T02:31:45.532Z,848.77
2017-01-17T02:32:15.560Z,848.74
2017-01-17T02:32:45.591Z,848.71
2017-01-17T02:33:15.614Z,848.65
2017-01-17T02:33:45.644Z,848.63
2017-01-17T02:34:15.677Z,848.59
2017-01-17T02:34:45.701Z,848.52
2017-01-17T02:35:15.728Z,848.54
2017-01-17T02:35:45.762Z,848.49
2017-01-17T02:36:15.784Z,848.46
2017-01-17T02:36:45.811Z,848.41
2017-01-17T02:37:15.836Z,848.35
2017-01-17T02:37:45.866Z,848.37
2017-01-17T02:38:15.896Z,848.32
2017-01-17T02:38:45.922Z,848.3
2017-01-17T02:39:15.949Z,848.24
2017-01-17T02:39:45.976Z,848.24
2017-01-17T02:40:16.003Z,848.2
2017-01-17T02:40:46.032Z,848.13
2017-01-17T02:41:16.061Z,848.12
2017-01-17T02:41:46.086Z,848.08
2017-01-17T02:42:16.114Z,848.07
2017-01-17T02:42:46.140Z,848.06
2017-01-17T02:43:16.172Z,848.08
2017-01-17T02:43:46.196Z,848.04
2017-01-17T02:44:16.222Z,848.09
2017-01-17T02:44:46.252Z,848.12
2017-01-17T02:45:16.278Z,848.07
2017-01-17T02:45:46.308Z,848.08
2017-01-17T02:46:16.337Z,848.12
2017-01-17T02:46:46.361Z,848.07
2017-01-17T02:47:16.389Z,848.1
2017-01-17T02:47:46.421Z,848.08
2017-01-17T02:48:16.448Z,848.06
2017-01-17T02:48:46.475Z,848.05
2017-01-17T02:49:16.502Z,847.99
2017-01-17T02:49:46.530Z,848.02
2017-01-17T02:50:16.558Z,847.93
2017-01-17T02:50:46.585Z,847.93
2017-01-17T02:51:16.614Z,847.92
2017-01-17T02:51:46.641Z,847.92
2017-01-17T02:52:16.669Z,847.88
2017-01-17T02:52:46.698Z,847.9
2017-01-17T02:53:16.724Z,847.88
2017-01-17T02:53:46.752Z,847.85
2017-01-17T02:54:16.780Z,847.8
2017-01-17T02:54:46.809Z,847.8
2017-01-17T02:55:16.834Z,847.75
2017-01-17T02:55:46.860Z,847.78
2017-01-17T02:56:16.891Z,847.79
2017-01-17T02:56:46.915Z,847.81
2017-01-17T02:57:16.943Z,847.81
2017-01-17T02:57:46.973Z,847.79
2017-01-17T02:58:17.000Z,847.8
2017-01-17T02:58:47.029Z,847.77
2017-01-17T02:59:17.057Z,847.73
2017-01-17T02:59:47.083Z,847.73
2017-01-17T03:00:17.110Z,847.68
2017-01-17T03:00:47.139Z,847.67
2017-01-17T03:01:17.165Z,847.64
2017-01-17T03:01:47.193Z,847.67
2017-01-17T03:02:17.220Z,847.65
2017-01-17T03:02:47.249Z,847.58
2017-01-17T03:03:17.276Z,847.53
2017-01-17T03:03:47.305Z,847.51
2017-01-17T03:04:17.332Z,847.6
2017-01-17T03:04:47.359Z,847.59
2017-01-17T03:05:17.389Z,847.57
2017-01-17T03:05:47.414Z,847.59
2017-01-17T03:06:17.442Z,847.56
2017-01-17T03:06:47.469Z,847.52
2017-01-17T03:07:17.498Z,847.56
2017-01-17T03:07:47.527Z,847.5
2017-01-17T03:08:17.552Z,847.52
2017-01-17T03:08:47.579Z,847.54
2017-01-17T03:09:17.608Z,847.59
2017-01-17T03:09:47.637Z,847.65
2017-01-17T03:10:17.662Z,847.59
2017-01-17T03:10:47.691Z,847.66
2017-01-17T03:11:17.717Z,847.7
2017-01-17T03:11:47.746Z,847.69
2017-01-17T03:12:17.778Z,847.73
2017-01-17T03:12:47.801Z,847.74
2017-01-17T03:13:17.830Z,847.72
2017-01-17T03:13:47.860Z,847.67
2017-01-17T03:14:17.889Z,847.76
2017-01-17T03:14:47.913Z,847.74
2017-01-17T03:15:17.941Z,847.75
2017-01-17T03:15:47.967Z,847.75
2017-01-17T03:16:17.995Z,847.71
2017-01-17T03:16:48.021Z,847.72
2017-01-17T03:17:18.051Z,847.67
2017-01-17T03:17:48.079Z,847.73
2017-01-17T03:18:18.105Z,847.68
2017-01-17T03:18:48.142Z,847.72
2017-01-17T03:19:18.160Z,847.58
2017-01-17T03:19:48.188Z,847.57
2017-01-17T03:20:18.213Z,847.47
2017-01-17T03:20:48.246Z,847.47
2017-01-17T03:21:18.271Z,847.39
2017-01-17T03:21:48.302Z,847.33
2017-01-17T03:22:18.325Z,847.36
2017-01-17T03:22:48.352Z,847.34
2017-01-17T03:23:18.380Z,847.28
2017-01-17T03:23:48.409Z,847.24
2017-01-17T03:24:18.439Z,847.17
2017-01-17T03:24:48.464Z,847.19
2017-01-17T03:25:18.501Z,847.12
2017-01-17T03:25:48.520Z,847.04
2017-01-17T03:26:18.544Z,847.03
2017-01-17T03:26:48.572Z,847.04
2017-01-17T03:27:18.601Z,847
2017-01-17T03:27:48.630Z,847
2017-01-17T03:28:18.656Z,846.97
2017-01-17T03:28:48.682Z,846.97
2017-01-17T03:29:18.710Z,846.97
2017-01-17T03:29:48.738Z,847
2017-01-17T03:30:18.764Z,847.04
2017-01-17T03:30:48.794Z,847.03
2017-01-17T03:31:18.821Z,847.07
2017-01-17T03:31:48.849Z,847.03
2017-01-17T03:32:18.880Z,847.04
2017-01-17T03:32:48.906Z,847.07
2017-01-17T03:33:18.931Z,847.09
2017-01-17T03:33:48.958Z,847.08
2017-01-17T03:34:18.989Z,847.12
2017-01-17T03:34:49.015Z,847.11
2017-01-17T03:35:19.043Z,847.16
2017-01-17T03:35:49.068Z,847.16
2017-01-17T03:36:19.097Z,847.19
2017-01-17T03:36:49.125Z,847.19
2017-01-17T03:37:19.151Z,847.22
2017-01-17T03:37:49.182Z,847.26
2017-01-17T03:38:19.210Z,847.3
2017-01-17T03:38:49.235Z,847.34
2017-01-17T03:39:19.264Z,847.38
2017-01-17T03:39:49.300Z,847.4
2017-01-17T03:40:19.317Z,847.35
2017-01-17T03:40:49.345Z,847.37
2017-01-17T03:41:19.373Z,847.39
2017-01-17T03:41:49.402Z,847.5
2017-01-17T03:42:19.428Z,847.48
2017-01-17T03:42:49.457Z,847.52
2017-01-17T03:43:19.482Z,847.53
2017-01-17T03:43:49.510Z,847.51
2017-01-17T03:44:19.538Z,847.46
2017-01-17T03:44:49.565Z,847.54
2017-01-17T03:45:19.593Z,847.5
2017-01-17T03:45:49.622Z,847.54
2017-01-17T03:46:19.651Z,847.46
2017-01-17T03:46:49.676Z,847.45
2017-01-17T03:47:19.703Z,847.59
2017-01-17T03:47:49.732Z,847.67
2017-01-17T03:48:19.759Z,847.69
2017-01-17T03:48:49.791Z,847.65
2017-01-17T03:49:19.816Z,847.67
2017-01-17T03:49:49.841Z,847.73
2017-01-17T03:50:19.873Z,847.71
2017-01-17T03:50:49.899Z,847.75
2017-01-17T03:51:19.926Z,847.78
2017-01-17T03:51:49.954Z,847.82
2017-01-17T03:52:19.981Z,847.84
2017-01-17T03:52:50.010Z,847.83
2017-01-17T03:53:20.037Z,847.92
2017-01-17T03:53:50.062Z,847.95
2017-01-17T03:54:20.100Z,847.95
2017-01-17T03:54:50.117Z,847.99
2017-01-17T03:55:20.151Z,848.07
2017-01-17T03:55:50.174Z,848.07
2017-01-17T03:56:20.208Z,848.09
2017-01-17T03:56:50.231Z,848.2
2017-01-17T03:57:20.258Z,848.32
2017-01-17T03:57:50.285Z,848.32
2017-01-17T03:58:20.314Z,848.4
2017-01-17T03:58:50.341Z,848.47
2017-01-17T03:59:20.369Z,848.54
2017-01-17T03:59:50.396Z,848.62
2017-01-17T04:00:20.725Z,848.67
2017-01-17T04:00:50.452Z,848.68
2017-01-17T04:01:20.482Z,848.77
2017-01-17T04:01:50.508Z,848.78
2017-01-17T04:02:20.536Z,848.82
2017-01-17T04:02:50.563Z,848.91
2017-01-17T04:03:20.592Z,848.91
2017-01-17T04:03:50.618Z,848.99
2017-01-17T04:04:20.647Z,849.03
2017-01-17T04:04:50.674Z,849.08
2017-01-17T04:05:20.703Z,849.07
2017-01-17T04:05:50.733Z,849.13
2017-01-17T04:06:20.759Z,849.21
2017-01-17T04:06:50.788Z,849.2
2017-01-17T04:07:20.816Z,849.29
2017-01-17T04:07:50.844Z,849.33
2017-01-17T04:08:20.869Z,849.39
2017-01-17T04:08:50.897Z,849.46
2017-01-17T04:09:20.926Z,849.51
2017-01-17T04:09:50.954Z,849.52
2017-01-17T04:10:20.979Z,849.59
2017-01-17T04:10:51.003Z,849.63
2017-01-17T04:11:21.035Z,849.67
2017-01-17T04:11:51.062Z,849.68
2017-01-17T04:12:21.091Z,849.74
2017-01-17T04:12:51.119Z,849.8
2017-01-17T04:13:21.150Z,849.78
2017-01-17T04:13:51.176Z,849.85
2017-01-17T04:14:21.202Z,849.85
2017-01-17T04:14:51.230Z,849.86
2017-01-17T04:15:21.258Z,849.91
2017-01-17T04:15:51.285Z,849.9
2017-01-17T04:16:21.314Z,849.92
2017-01-17T04:16:51.341Z,849.91
2017-01-17T04:17:21.367Z,849.89
2017-01-17T04:17:51.400Z,849.89
2017-01-17T04:18:21.426Z,849.9
2017-01-17T04:18:51.453Z,849.87
2017-01-17T04:19:21.483Z,849.85
2017-01-17T04:19:51.513Z,849.85
2017-01-17T04:20:21.536Z,849.8
2017-01-17T04:20:51.562Z,849.84
2017-01-17T04:21:21.591Z,849.82
2017-01-17T04:21:51.622Z,849.82
2017-01-17T04:22:21.647Z,849.84
2017-01-17T04:22:51.676Z,849.86
2017-01-17T04:23:21.703Z,849.83
2017-01-17T04:23:51.733Z,849.84
2017-01-17T04:24:21.764Z,849.82
2017-01-17T04:24:51.787Z,849.81
2017-01-17T04:25:21.815Z,849.83
2017-01-17T04:25:51.843Z,849.83
2017-01-17T04:26:21.871Z,849.9
2017-01-17T04:26:51.900Z,849.94
2017-01-17T04:27:21.926Z,849.94
2017-01-17T04:27:51.954Z,849.95
2017-01-17T04:28:21.982Z,849.94
2017-01-17T04:28:52.009Z,849.96
2017-01-17T04:29:22.041Z,849.94
2017-01-17T04:29:52.068Z,850
2017-01-17T04:30:22.093Z,849.97
2017-01-17T04:30:52.123Z,849.99
2017-01-17T04:31:22.148Z,850.01
2017-01-17T04:31:52.176Z,850.06
2017-01-17T04:32:22.205Z,850.03
2017-01-17T04:32:52.234Z,850.04
2017-01-17T04:33:22.261Z,850.09
2017-01-17T04:33:52.289Z,850.07
2017-01-17T04:34:22.316Z,850.03
2017-01-17T04:34:52.344Z,850.05
2017-01-17T04:35:22.372Z,850.15
2017-01-17T04:35:52.400Z,850.18
2017-01-17T04:36:22.427Z,850.15
2017-01-17T04:36:52.456Z,850.12
2017-01-17T04:37:22.481Z,850.07
2017-01-17T04:37:52.513Z,850.09
2017-01-17T04:38:22.538Z,850.03
2017-01-17T04:38:52.564Z,850.04
2017-01-17T04:39:22.596Z,850.04
2017-01-17T04:39:52.623Z,850
2017-01-17T04:40:22.651Z,849.95
2017-01-17T04:40:52.677Z,849.93
2017-01-17T04:41:22.706Z,849.89
2017-01-17T04:41:52.732Z,849.86
2017-01-17T04:42:22.761Z,849.93
2017-01-17T04:42:52.792Z,849.94
2017-01-17T04:43:22.817Z,849.86
2017-01-17T04:43:52.846Z,849.85
2017-01-17T04:44:22.875Z,849.87
2017-01-17T04:44:52.900Z,849.88
2017-01-17T04:45:22.929Z,849.85
2017-01-17T04:45:52.959Z,849.78
2017-01-17T04:46:22.984Z,849.79
2017-01-17T04:46:53.013Z,849.77
2017-01-17T04:47:23.040Z,849.74
2017-01-17T04:47:53.069Z,849.77
2017-01-17T04:48:23.097Z,849.74
2017-01-17T04:48:53.124Z,849.7
2017-01-17T04:49:23.152Z,849.74
2017-01-17T04:49:53.180Z,849.76
2017-01-17T04:50:23.206Z,849.78
2017-01-17T04:50:53.235Z,849.79
2017-01-17T04:51:23.263Z,849.8
2017-01-17T04:51:53.291Z,849.78
2017-01-17T04:52:23.316Z,849.81
2017-01-17T04:52:53.346Z,849.74
2017-01-17T04:53:23.373Z,849.72
2017-01-17T04:53:53.402Z,849.65
2017-01-17T04:54:23.430Z,849.62
2017-01-17T04:54:53.458Z,849.6
2017-01-17T04:55:23.485Z,849.56
2017-01-17T04:55:53.514Z,849.5
2017-01-17T04:56:23.542Z,849.46
2017-01-17T04:56:53.574Z,849.43
2017-01-17T04:57:23.597Z,849.38
2017-01-17T04:57:53.623Z,849.37
2017-01-17T04:58:23.652Z,849.33
2017-01-17T04:58:53.679Z,849.3
2017-01-17T04:59:23.707Z,849.23
2017-01-17T04:59:53.737Z,849.18
2017-01-17T05:00:23.763Z,849.2
2017-01-17T05:00:53.790Z,849.17
2017-01-17T05:01:23.822Z,849.09
2017-01-17T05:01:53.848Z,849.03
2017-01-17T05:02:23.876Z,848.95
2017-01-17T05:02:53.902Z,848.92
2017-01-17T05:03:23.929Z,848.89
2017-01-17T05:03:53.957Z,848.85
2017-01-17T05:04:23.982Z,848.77
2017-01-17T05:04:54.017Z,848.69
2017-01-17T05:05:24.041Z,848.67
2017-01-17T05:05:54.067Z,848.64
2017-01-17T05:06:24.104Z,848.58
2017-01-17T05:06:54.124Z,848.52
2017-01-17T05:07:24.152Z,848.51
2017-01-17T05:07:54.180Z,848.44
2017-01-17T05:08:24.207Z,848.35
2017-01-17T05:08:54.234Z,848.33
2017-01-17T05:09:24.265Z,848.27
2017-01-17T05:09:54.298Z,848.23
2017-01-17T05:10:24.317Z,848.13
2017-01-17T05:10:54.347Z,848.09
2017-01-17T05:11:24.373Z,848.04
2017-01-17T05:11:54.401Z,847.97
2017-01-17T05:12:24.429Z,847.9
2017-01-17T05:12:54.456Z,847.82
2017-01-17T05:13:24.483Z,847.75
2017-01-17T05:13:54.514Z,847.65
2017-01-17T05:14:24.535Z,847.58
2017-01-17T05:14:54.567Z,847.48
2017-01-17T05:15:24.594Z,847.4
2017-01-17T05:15:54.623Z,847.28
2017-01-17T05:16:24.653Z,847.17
2017-01-17T05:16:54.680Z,847.12
2017-01-17T05:17:24.707Z,847.07
2017-01-17T05:17:54.732Z,846.95
2017-01-17T05:18:24.759Z,846.85
2017-01-17T05:18:54.786Z,846.79
2017-01-17T05:19:24.815Z,846.71
2017-01-17T05:19:54.842Z,846.68
2017-01-17T05:20:24.871Z,846.6
2017-01-17T05:20:54.897Z,846.56
2017-01-17T05:21:24.925Z,846.52
2017-01-17T05:21:54.951Z,846.45
2017-01-17T05:22:24.981Z,846.34
2017-01-17T05:22:55.010Z,846.34
2017-01-17T05:23:25.035Z,846.27
2017-01-17T05:23:55.063Z,846.24
2017-01-17T05:24:25.088Z,846.18
2017-01-17T05:24:55.114Z,846.1
2017-01-17T05:25:25.144Z,846.07
2017-01-17T05:25:55.172Z,846.02
2017-01-17T05:26:25.198Z,845.98
2017-01-17T05:26:55.227Z,845.97
2017-01-17T05:27:25.256Z,845.93
2017-01-17T05:27:55.280Z,845.92
2017-01-17T05:28:25.310Z,845.9
2017-01-17T05:28:55.336Z,845.87
2017-01-17T05:29:25.364Z,845.86
2017-01-17T05:29:55.393Z,845.83
2017-01-17T05:30:25.419Z,845.83
2017-01-17T05:30:55.446Z,845.82
2017-01-17T05:31:25.471Z,845.77
2017-01-17T05:31:55.501Z,845.73
2017-01-17T05:32:25.528Z,845.7
2017-01-17T05:32:55.556Z,845.71
2017-01-17T05:33:25.585Z,845.7
2017-01-17T05:33:55.611Z,845.69
2017-01-17T05:34:25.637Z,845.67
2017-01-17T05:34:55.666Z,845.63
2017-01-17T05:35:25.690Z,845.6
2017-01-17T05:35:55.725Z,845.6
2017-01-17T05:36:25.753Z,845.53
2017-01-17T05:36:55.775Z,845.54
2017-01-17T05:37:25.804Z,845.54
2017-01-17T05:37:55.831Z,845.51
2017-01-17T05:38:25.858Z,845.51
2017-01-17T05:38:55.886Z,845.53
2017-01-17T05:39:25.913Z,845.51
2017-01-17T05:39:55.946Z,845.52
2017-01-17T05:40:25.969Z,845.51
2017-01-17T05:40:55.996Z,845.5
2017-01-17T05:41:26.023Z,845.5
2017-01-17T05:41:56.051Z,845.5
2017-01-17T05:42:26.078Z,845.53
2017-01-17T05:42:56.107Z,845.6
2017-01-17T05:43:26.134Z,845.54
2017-01-17T05:43:56.161Z,845.53
2017-01-17T05:44:26.187Z,845.6
2017-01-17T05:44:56.215Z,845.59
2017-01-17T05:45:26.241Z,845.62
2017-01-17T05:45:56.270Z,845.68
2017-01-17T05:46:26.297Z,845.72
2017-01-17T05:46:56.324Z,845.72
2017-01-17T05:47:26.351Z,845.8
2017-01-17T05:47:56.377Z,845.85
2017-01-17T05:48:26.406Z,845.91
2017-01-17T05:48:56.433Z,845.97
2017-01-17T05:49:26.460Z,846.02
2017-01-17T05:49:56.492Z,846.09
2017-01-17T05:50:26.517Z,846.12
2017-01-17T05:50:56.543Z,846.21
2017-01-17T05:51:26.570Z,846.25
2017-01-17T05:51:56.597Z,846.29
2017-01-17T05:52:26.627Z,846.34
2017-01-17T05:52:56.653Z,846.39
2017-01-17T05:53:26.689Z,846.32
2017-01-17T05:53:56.715Z,846.4
2017-01-17T05:54:26.735Z,846.54
2017-01-17T05:54:56.761Z,846.59
2017-01-17T05:55:26.792Z,846.59
2017-01-17T05:55:56.819Z,846.58
2017-01-17T05:56:26.847Z,846.57
2017-01-17T05:56:56.874Z,846.61
2017-01-17T05:57:26.901Z,846.61
2017-01-17T05:57:56.928Z,846.6
2017-01-17T05:58:26.957Z,846.6
2017-01-17T05:58:56.986Z,846.5
2017-01-17T05:59:27.013Z,846.51
2017-01-17T05:59:57.041Z,846.49
2017-01-17T06:00:27.067Z,846.42
2017-01-17T06:00:57.097Z,846.41
2017-01-17T06:01:27.119Z,846.36
2017-01-17T06:01:57.149Z,846.37
2017-01-17T06:02:27.177Z,846.33
2017-01-17T06:02:57.504Z,846.3
2017-01-17T06:03:27.231Z,846.33
2017-01-17T06:03:57.264Z,846.34
2017-01-17T06:04:27.291Z,846.31
2017-01-17T06:04:57.313Z,846.3
2017-01-17T06:05:27.342Z,846.32
2017-01-17T06:05:57.368Z,846.31
2017-01-17T06:06:27.396Z,846.31
2017-01-17T06:06:57.424Z,846.28
2017-01-17T06:07:27.453Z,846.27
2017-01-17T06:07:57.479Z,846.21
2017-01-17T06:08:27.510Z,846.22
2017-01-17T06:08:57.534Z,846.17
2017-01-17T06:09:27.562Z,846.14
2017-01-17T06:09:57.590Z,846.1
2017-01-17T06:10:27.619Z,846.06
2017-01-17T06:10:57.648Z,846.05
2017-01-17T06:11:27.673Z,846.04
2017-01-17T06:11:57.699Z,846.04
2017-01-17T06:12:27.729Z,845.97
2017-01-17T06:12:57.755Z,846.03
2017-01-17T06:13:27.783Z,846.03
2017-01-17T06:13:57.811Z,846.05
2017-01-17T06:14:27.840Z,846.07
2017-01-17T06:14:57.866Z,846.07
2017-01-17T06:15:27.893Z,846.07
2017-01-17T06:15:57.920Z,846.06